sensor_id;sensor_type;location;lat;lon;timestamp;P1;durP1;ratioP1;P2;durP2;ratioP2
44606;SDS011;30315;46.072;14.474;2023-07-02T00:00:07;8.23;;;7.43;;
44606;SDS011;30315;46.072;14.474;2023-07-02T00:02:35;7.38;;;6.68;;
44606;SDS011;30315;46.072;14.474;2023-07-02T00:05:03;7.30;;;6.75;;
44606;SDS011;30315;46.072;14.474;2023-07-02T00:07:31;8.02;;;7.13;;
44606;SDS011;30315;46.072;14.474;2023-07-02T00:09:59;7.13;;;6.63;;
44606;SDS011;30315;46.072;14.474;2023-07-02T00:12:26;7.53;;;6.80;;
44606;SDS011;30315;46.072;14.474;2023-07-02T00:14:53;8.10;;;6.75;;
44606;SDS011;30315;46.072;14.474;2023-07-02T00:17:20;7.97;;;6.40;;
44606;SDS011;30315;46.072;14.474;2023-07-02T00:19:47;6.47;;;5.97;;
44606;SDS011;30315;46.072;14.474;2023-07-02T00:22:18;7.18;;;6.57;;
44606;SDS011;30315;46.072;14.474;2023-07-02T00:24:46;9.30;;;6.63;;
44606;SDS011;30315;46.072;14.474;2023-07-02T00:27:13;7.43;;;6.68;;
44606;SDS011;30315;46.072;14.474;2023-07-02T00:29:40;7.00;;;6.50;;
44606;SDS011;30315;46.072;14.474;2023-07-02T00:32:07;7.28;;;6.68;;
44606;SDS011;30315;46.072;14.474;2023-07-02T00:34:34;7.78;;;7.10;;
44606;SDS011;30315;46.072;14.474;2023-07-02T00:37:01;7.35;;;6.75;;
44606;SDS011;30315;46.072;14.474;2023-07-02T00:39:28;9.35;;;7.05;;
44606;SDS011;30315;46.072;14.474;2023-07-02T00:41:59;7.32;;;6.68;;
44606;SDS011;30315;46.072;14.474;2023-07-02T00:44:30;7.25;;;6.75;;
44606;SDS011;30315;46.072;14.474;2023-07-02T00:46:58;7.50;;;6.88;;
44606;SDS011;30315;46.072;14.474;2023-07-02T00:49:25;6.95;;;6.35;;
44606;SDS011;30315;46.072;14.474;2023-07-02T00:51:52;7.35;;;6.65;;
44606;SDS011;30315;46.072;14.474;2023-07-02T00:54:20;7.55;;;6.93;;
44606;SDS011;30315;46.072;14.474;2023-07-02T00:56:47;8.10;;;7.32;;
44606;SDS011;30315;46.072;14.474;2023-07-02T00:59:14;7.72;;;7.03;;
44606;SDS011;30315;46.072;14.474;2023-07-02T01:01:41;7.50;;;6.80;;
44606;SDS011;30315;46.072;14.474;2023-07-02T01:04:08;7.38;;;6.80;;
44606;SDS011;30315;46.072;14.474;2023-07-02T01:06:36;7.55;;;6.82;;
44606;SDS011;30315;46.072;14.474;2023-07-02T01:09:07;8.45;;;7.63;;
44606;SDS011;30315;46.072;14.474;2023-07-02T01:16:35;8.48;;;7.70;;
44606;SDS011;30315;46.072;14.474;2023-07-02T01:19:04;7.60;;;7.05;;
44606;SDS011;30315;46.072;14.474;2023-07-02T01:21:37;8.65;;;7.80;;
44606;SDS011;30315;46.072;14.474;2023-07-02T01:24:04;7.97;;;7.22;;
44606;SDS011;30315;46.072;14.474;2023-07-02T01:26:31;8.68;;;7.82;;
44606;SDS011;30315;46.072;14.474;2023-07-02T01:29:16;8.85;;;7.32;;
44606;SDS011;30315;46.072;14.474;2023-07-02T01:31:44;8.68;;;7.90;;
44606;SDS011;30315;46.072;14.474;2023-07-02T01:34:12;7.90;;;7.13;;
44606;SDS011;30315;46.072;14.474;2023-07-02T01:36:40;8.57;;;7.72;;
44606;SDS011;30315;46.072;14.474;2023-07-02T01:39:07;8.25;;;7.50;;
44606;SDS011;30315;46.072;14.474;2023-07-02T01:41:38;9.20;;;7.75;;
44606;SDS011;30315;46.072;14.474;2023-07-02T01:44:16;8.15;;;7.50;;
44606;SDS011;30315;46.072;14.474;2023-07-02T01:46:44;8.02;;;7.43;;
44606;SDS011;30315;46.072;14.474;2023-07-02T01:49:15;8.95;;;7.55;;
44606;SDS011;30315;46.072;14.474;2023-07-02T01:51:49;7.63;;;6.85;;
44606;SDS011;30315;46.072;14.474;2023-07-02T01:54:21;9.73;;;7.35;;
44606;SDS011;30315;46.072;14.474;2023-07-02T01:56:50;8.55;;;7.45;;
44606;SDS011;30315;46.072;14.474;2023-07-02T01:59:16;7.57;;;6.93;;
44606;SDS011;30315;46.072;14.474;2023-07-02T02:01:43;8.02;;;7.43;;
44606;SDS011;30315;46.072;14.474;2023-07-02T02:04:11;8.52;;;7.57;;
44606;SDS011;30315;46.072;14.474;2023-07-02T02:06:39;8.30;;;7.40;;
44606;SDS011;30315;46.072;14.474;2023-07-02T02:09:06;7.88;;;7.18;;
44606;SDS011;30315;46.072;14.474;2023-07-02T02:11:40;9.45;;;7.30;;
44606;SDS011;30315;46.072;14.474;2023-07-02T02:14:09;10.82;;;7.93;;
44606;SDS011;30315;46.072;14.474;2023-07-02T02:16:36;8.02;;;7.35;;
44606;SDS011;30315;46.072;14.474;2023-07-02T02:19:03;7.95;;;7.20;;
44606;SDS011;30315;46.072;14.474;2023-07-02T02:24:26;8.38;;;7.68;;
44606;SDS011;30315;46.072;14.474;2023-07-02T02:26:53;11.70;;;8.63;;
44606;SDS011;30315;46.072;14.474;2023-07-02T02:29:20;9.38;;;8.57;;
44606;SDS011;30315;46.072;14.474;2023-07-02T02:31:47;11.85;;;9.32;;
44606;SDS011;30315;46.072;14.474;2023-07-02T02:34:15;10.18;;;9.23;;
44606;SDS011;30315;46.072;14.474;2023-07-02T02:36:42;9.90;;;8.90;;
44606;SDS011;30315;46.072;14.474;2023-07-02T02:39:10;10.88;;;9.90;;
44606;SDS011;30315;46.072;14.474;2023-07-02T02:41:36;10.88;;;9.88;;
44606;SDS011;30315;46.072;14.474;2023-07-02T02:44:04;10.00;;;9.13;;
44606;SDS011;30315;46.072;14.474;2023-07-02T02:46:31;11.10;;;10.10;;
44606;SDS011;30315;46.072;14.474;2023-07-02T02:48:58;10.60;;;9.57;;
44606;SDS011;30315;46.072;14.474;2023-07-02T02:51:25;10.35;;;9.52;;
44606;SDS011;30315;46.072;14.474;2023-07-02T02:53:52;10.07;;;9.00;;
44606;SDS011;30315;46.072;14.474;2023-07-02T02:56:19;11.40;;;9.27;;
44606;SDS011;30315;46.072;14.474;2023-07-02T02:58:46;9.85;;;8.95;;
44606;SDS011;30315;46.072;14.474;2023-07-02T03:01:13;9.93;;;9.13;;
44606;SDS011;30315;46.072;14.474;2023-07-02T03:03:41;9.57;;;8.63;;
44606;SDS011;30315;46.072;14.474;2023-07-02T03:06:15;9.15;;;8.27;;
44606;SDS011;30315;46.072;14.474;2023-07-02T03:08:42;8.95;;;8.15;;
44606;SDS011;30315;46.072;14.474;2023-07-02T03:11:09;9.20;;;8.30;;
44606;SDS011;30315;46.072;14.474;2023-07-02T03:13:36;10.05;;;9.05;;
44606;SDS011;30315;46.072;14.474;2023-07-02T03:16:03;9.10;;;8.30;;
44606;SDS011;30315;46.072;14.474;2023-07-02T03:18:30;8.60;;;7.90;;
44606;SDS011;30315;46.072;14.474;2023-07-02T03:20:58;8.98;;;8.05;;
44606;SDS011;30315;46.072;14.474;2023-07-02T03:23:25;9.57;;;8.68;;
44606;SDS011;30315;46.072;14.474;2023-07-02T03:25:52;8.52;;;7.82;;
44606;SDS011;30315;46.072;14.474;2023-07-02T03:28:19;10.70;;;7.78;;
44606;SDS011;30315;46.072;14.474;2023-07-02T03:30:46;8.35;;;7.63;;
44606;SDS011;30315;46.072;14.474;2023-07-02T03:33:14;8.77;;;7.82;;
44606;SDS011;30315;46.072;14.474;2023-07-02T03:35:41;8.15;;;7.50;;
44606;SDS011;30315;46.072;14.474;2023-07-02T03:38:08;8.20;;;7.50;;
44606;SDS011;30315;46.072;14.474;2023-07-02T03:40:34;8.68;;;8.05;;
44606;SDS011;30315;46.072;14.474;2023-07-02T03:43:01;8.80;;;7.88;;
44606;SDS011;30315;46.072;14.474;2023-07-02T03:45:28;8.60;;;7.95;;
44606;SDS011;30315;46.072;14.474;2023-07-02T03:47:55;12.60;;;8.27;;
44606;SDS011;30315;46.072;14.474;2023-07-02T03:50:23;9.25;;;8.43;;
44606;SDS011;30315;46.072;14.474;2023-07-02T03:52:49;8.93;;;8.13;;
44606;SDS011;30315;46.072;14.474;2023-07-02T03:55:16;9.60;;;8.70;;
44606;SDS011;30315;46.072;14.474;2023-07-02T03:57:43;9.73;;;8.73;;
44606;SDS011;30315;46.072;14.474;2023-07-02T04:00:10;9.98;;;9.07;;
44606;SDS011;30315;46.072;14.474;2023-07-02T04:02:40;9.18;;;8.20;;
44606;SDS011;30315;46.072;14.474;2023-07-02T04:05:08;11.15;;;8.80;;
44606;SDS011;30315;46.072;14.474;2023-07-02T04:07:35;9.30;;;8.50;;
44606;SDS011;30315;46.072;14.474;2023-07-02T04:10:02;10.43;;;8.77;;
44606;SDS011;30315;46.072;14.474;2023-07-02T04:12:29;9.80;;;8.82;;
44606;SDS011;30315;46.072;14.474;2023-07-02T04:14:57;9.95;;;9.00;;
44606;SDS011;30315;46.072;14.474;2023-07-02T04:17:24;10.98;;;9.40;;
44606;SDS011;30315;46.072;14.474;2023-07-02T04:19:53;10.82;;;9.82;;
44606;SDS011;30315;46.072;14.474;2023-07-02T04:22:21;9.85;;;8.95;;
44606;SDS011;30315;46.072;14.474;2023-07-02T04:24:48;10.02;;;9.10;;
44606;SDS011;30315;46.072;14.474;2023-07-02T04:27:17;10.20;;;8.98;;
44606;SDS011;30315;46.072;14.474;2023-07-02T04:30:04;9.38;;;8.57;;
44606;SDS011;30315;46.072;14.474;2023-07-02T04:32:32;9.73;;;8.55;;
44606;SDS011;30315;46.072;14.474;2023-07-02T04:34:59;9.57;;;8.68;;
44606;SDS011;30315;46.072;14.474;2023-07-02T04:37:27;8.85;;;8.15;;
44606;SDS011;30315;46.072;14.474;2023-07-02T04:39:54;8.52;;;7.82;;
44606;SDS011;30315;46.072;14.474;2023-07-02T04:42:21;9.18;;;8.27;;
44606;SDS011;30315;46.072;14.474;2023-07-02T04:44:54;9.30;;;8.40;;
44606;SDS011;30315;46.072;14.474;2023-07-02T04:47:21;10.80;;;7.93;;
44606;SDS011;30315;46.072;14.474;2023-07-02T04:49:48;9.02;;;8.32;;
44606;SDS011;30315;46.072;14.474;2023-07-02T04:52:15;8.82;;;8.02;;
44606;SDS011;30315;46.072;14.474;2023-07-02T04:54:42;9.02;;;8.15;;
44606;SDS011;30315;46.072;14.474;2023-07-02T04:57:09;10.30;;;8.85;;
44606;SDS011;30315;46.072;14.474;2023-07-02T04:59:36;8.70;;;7.90;;
44606;SDS011;30315;46.072;14.474;2023-07-02T05:02:03;11.13;;;8.32;;
44606;SDS011;30315;46.072;14.474;2023-07-02T05:04:30;9.52;;;8.52;;
44606;SDS011;30315;46.072;14.474;2023-07-02T05:06:57;10.35;;;9.32;;
44606;SDS011;30315;46.072;14.474;2023-07-02T05:09:23;9.55;;;8.65;;
44606;SDS011;30315;46.072;14.474;2023-07-02T05:11:50;11.52;;;9.80;;
44606;SDS011;30315;46.072;14.474;2023-07-02T05:14:17;11.57;;;9.35;;
44606;SDS011;30315;46.072;14.474;2023-07-02T05:16:44;11.77;;;9.88;;
44606;SDS011;30315;46.072;14.474;2023-07-02T05:19:11;11.23;;;9.80;;
44606;SDS011;30315;46.072;14.474;2023-07-02T05:21:38;11.55;;;9.73;;
44606;SDS011;30315;46.072;14.474;2023-07-02T05:24:05;10.85;;;9.55;;
44606;SDS011;30315;46.072;14.474;2023-07-02T05:26:32;10.02;;;9.02;;
44606;SDS011;30315;46.072;14.474;2023-07-02T05:29:00;11.60;;;9.82;;
44606;SDS011;30315;46.072;14.474;2023-07-02T05:31:27;14.02;;;10.27;;
44606;SDS011;30315;46.072;14.474;2023-07-02T05:33:54;11.95;;;9.05;;
44606;SDS011;30315;46.072;14.474;2023-07-02T05:36:21;11.82;;;9.32;;
44606;SDS011;30315;46.072;14.474;2023-07-02T05:38:48;11.07;;;9.75;;
44606;SDS011;30315;46.072;14.474;2023-07-02T05:41:21;10.05;;;9.00;;
44606;SDS011;30315;46.072;14.474;2023-07-02T05:43:48;11.85;;;9.00;;
44606;SDS011;30315;46.072;14.474;2023-07-02T05:46:15;9.85;;;8.85;;
44606;SDS011;30315;46.072;14.474;2023-07-02T05:48:42;10.35;;;9.35;;
44606;SDS011;30315;46.072;14.474;2023-07-02T05:51:09;9.93;;;9.10;;
44606;SDS011;30315;46.072;14.474;2023-07-02T05:53:37;10.45;;;9.32;;
44606;SDS011;30315;46.072;14.474;2023-07-02T05:56:04;10.80;;;9.07;;
44606;SDS011;30315;46.072;14.474;2023-07-02T05:58:31;11.90;;;9.30;;
44606;SDS011;30315;46.072;14.474;2023-07-02T06:01:13;10.30;;;9.40;;
44606;SDS011;30315;46.072;14.474;2023-07-02T06:03:40;10.40;;;8.85;;
44606;SDS011;30315;46.072;14.474;2023-07-02T06:06:09;10.15;;;9.15;;
44606;SDS011;30315;46.072;14.474;2023-07-02T06:08:37;9.48;;;8.68;;
44606;SDS011;30315;46.072;14.474;2023-07-02T06:11:04;10.02;;;8.60;;
44606;SDS011;30315;46.072;14.474;2023-07-02T06:13:31;10.20;;;8.35;;
44606;SDS011;30315;46.072;14.474;2023-07-02T06:15:58;10.85;;;9.07;;
44606;SDS011;30315;46.072;14.474;2023-07-02T06:18:25;9.63;;;8.73;;
44606;SDS011;30315;46.072;14.474;2023-07-02T06:20:52;9.00;;;8.10;;
44606;SDS011;30315;46.072;14.474;2023-07-02T06:23:19;10.07;;;9.07;;
44606;SDS011;30315;46.072;14.474;2023-07-02T06:25:46;8.88;;;7.93;;
44606;SDS011;30315;46.072;14.474;2023-07-02T06:28:13;9.18;;;8.32;;
44606;SDS011;30315;46.072;14.474;2023-07-02T06:30:40;9.20;;;8.30;;
44606;SDS011;30315;46.072;14.474;2023-07-02T06:33:07;8.65;;;7.85;;
44606;SDS011;30315;46.072;14.474;2023-07-02T06:35:34;8.32;;;7.53;;
44606;SDS011;30315;46.072;14.474;2023-07-02T06:38:00;7.40;;;6.78;;
44606;SDS011;30315;46.072;14.474;2023-07-02T06:40:27;8.50;;;7.80;;
44606;SDS011;30315;46.072;14.474;2023-07-02T06:42:54;8.00;;;7.20;;
44606;SDS011;30315;46.072;14.474;2023-07-02T06:45:21;7.82;;;7.13;;
44606;SDS011;30315;46.072;14.474;2023-07-02T06:47:49;8.35;;;7.53;;
44606;SDS011;30315;46.072;14.474;2023-07-02T06:50:16;7.57;;;6.93;;
44606;SDS011;30315;46.072;14.474;2023-07-02T06:52:43;7.75;;;7.05;;
44606;SDS011;30315;46.072;14.474;2023-07-02T06:55:10;7.47;;;6.88;;
44606;SDS011;30315;46.072;14.474;2023-07-02T06:57:43;7.68;;;6.97;;
44606;SDS011;30315;46.072;14.474;2023-07-02T07:00:14;7.53;;;6.93;;
44606;SDS011;30315;46.072;14.474;2023-07-02T07:02:42;6.75;;;6.25;;
44606;SDS011;30315;46.072;14.474;2023-07-02T07:05:08;6.78;;;6.18;;
44606;SDS011;30315;46.072;14.474;2023-07-02T07:07:36;7.50;;;6.75;;
44606;SDS011;30315;46.072;14.474;2023-07-02T07:10:03;7.50;;;6.80;;
44606;SDS011;30315;46.072;14.474;2023-07-02T07:12:31;7.53;;;6.90;;
44606;SDS011;30315;46.072;14.474;2023-07-02T07:14:58;7.30;;;6.70;;
44606;SDS011;30315;46.072;14.474;2023-07-02T07:17:25;7.22;;;6.55;;
44606;SDS011;30315;46.072;14.474;2023-07-02T07:19:52;7.00;;;6.50;;
44606;SDS011;30315;46.072;14.474;2023-07-02T07:22:19;7.47;;;6.78;;
44606;SDS011;30315;46.072;14.474;2023-07-02T07:24:46;8.38;;;7.18;;
44606;SDS011;30315;46.072;14.474;2023-07-02T07:27:13;8.95;;;7.70;;
44606;SDS011;30315;46.072;14.474;2023-07-02T07:29:39;7.93;;;7.32;;
44606;SDS011;30315;46.072;14.474;2023-07-02T07:32:06;7.80;;;7.10;;
44606;SDS011;30315;46.072;14.474;2023-07-02T07:34:33;8.18;;;7.47;;
44606;SDS011;30315;46.072;14.474;2023-07-02T07:37:00;8.65;;;7.68;;
44606;SDS011;30315;46.072;14.474;2023-07-02T07:39:27;7.93;;;7.32;;
44606;SDS011;30315;46.072;14.474;2023-07-02T07:41:54;7.53;;;6.95;;
44606;SDS011;30315;46.072;14.474;2023-07-02T07:44:21;8.25;;;7.45;;
44606;SDS011;30315;46.072;14.474;2023-07-02T07:46:48;8.20;;;7.50;;
44606;SDS011;30315;46.072;14.474;2023-07-02T07:49:15;7.63;;;6.75;;
44606;SDS011;30315;46.072;14.474;2023-07-02T07:51:42;7.47;;;6.88;;
44606;SDS011;30315;46.072;14.474;2023-07-02T07:54:09;7.93;;;7.13;;
44606;SDS011;30315;46.072;14.474;2023-07-02T07:56:36;6.28;;;5.88;;
44606;SDS011;30315;46.072;14.474;2023-07-02T07:59:03;7.65;;;6.88;;
44606;SDS011;30315;46.072;14.474;2023-07-02T08:01:30;7.18;;;6.60;;
44606;SDS011;30315;46.072;14.474;2023-07-02T08:03:57;7.40;;;6.75;;
44606;SDS011;30315;46.072;14.474;2023-07-02T08:06:24;7.22;;;6.63;;
44606;SDS011;30315;46.072;14.474;2023-07-02T08:08:51;6.43;;;6.00;;
44606;SDS011;30315;46.072;14.474;2023-07-02T08:11:17;6.45;;;5.95;;
44606;SDS011;30315;46.072;14.474;2023-07-02T08:13:44;7.13;;;6.53;;
44606;SDS011;30315;46.072;14.474;2023-07-02T08:16:11;6.65;;;6.13;;
44606;SDS011;30315;46.072;14.474;2023-07-02T08:18:39;9.60;;;6.38;;
44606;SDS011;30315;46.072;14.474;2023-07-02T08:21:07;7.05;;;6.43;;
44606;SDS011;30315;46.072;14.474;2023-07-02T08:23:34;7.53;;;6.93;;
44606;SDS011;30315;46.072;14.474;2023-07-02T08:26:01;6.50;;;6.00;;
44606;SDS011;30315;46.072;14.474;2023-07-02T08:28:29;6.75;;;6.25;;
44606;SDS011;30315;46.072;14.474;2023-07-02T08:30:56;7.45;;;6.85;;
44606;SDS011;30315;46.072;14.474;2023-07-02T08:33:23;6.85;;;6.25;;
44606;SDS011;30315;46.072;14.474;2023-07-02T08:35:50;7.05;;;6.55;;
44606;SDS011;30315;46.072;14.474;2023-07-02T08:38:17;6.63;;;6.03;;
44606;SDS011;30315;46.072;14.474;2023-07-02T08:40:44;6.45;;;5.95;;
44606;SDS011;30315;46.072;14.474;2023-07-02T08:43:11;6.65;;;6.15;;
44606;SDS011;30315;46.072;14.474;2023-07-02T08:45:40;6.68;;;6.18;;
44606;SDS011;30315;46.072;14.474;2023-07-02T08:48:08;6.93;;;6.35;;
44606;SDS011;30315;46.072;14.474;2023-07-02T08:50:36;7.05;;;6.53;;
44606;SDS011;30315;46.072;14.474;2023-07-02T08:53:04;6.63;;;6.03;;
44606;SDS011;30315;46.072;14.474;2023-07-02T08:55:30;6.53;;;5.97;;
44606;SDS011;30315;46.072;14.474;2023-07-02T08:57:57;6.15;;;5.75;;
44606;SDS011;30315;46.072;14.474;2023-07-02T09:00:27;6.20;;;5.68;;
44606;SDS011;30315;46.072;14.474;2023-07-02T09:02:57;6.50;;;6.00;;
44606;SDS011;30315;46.072;14.474;2023-07-02T09:05:24;6.35;;;5.78;;
44606;SDS011;30315;46.072;14.474;2023-07-02T09:07:51;7.03;;;6.22;;
44606;SDS011;30315;46.072;14.474;2023-07-02T09:10:30;6.88;;;6.25;;
44606;SDS011;30315;46.072;14.474;2023-07-02T09:13:04;6.13;;;5.65;;
44606;SDS011;30315;46.072;14.474;2023-07-02T09:15:36;6.70;;;6.05;;
44606;SDS011;30315;46.072;14.474;2023-07-02T09:18:13;5.78;;;5.35;;
44606;SDS011;30315;46.072;14.474;2023-07-02T09:20:51;6.93;;;6.43;;
44606;SDS011;30315;46.072;14.474;2023-07-02T09:23:20;6.15;;;5.75;;
44606;SDS011;30315;46.072;14.474;2023-07-02T09:25:47;5.65;;;5.20;;
44606;SDS011;30315;46.072;14.474;2023-07-02T09:28:21;6.15;;;5.65;;
44606;SDS011;30315;46.072;14.474;2023-07-02T09:30:55;5.63;;;5.22;;
44606;SDS011;30315;46.072;14.474;2023-07-02T09:33:24;5.80;;;5.40;;
44606;SDS011;30315;46.072;14.474;2023-07-02T09:35:52;5.20;;;4.80;;
44606;SDS011;30315;46.072;14.474;2023-07-02T09:38:19;5.20;;;4.80;;
44606;SDS011;30315;46.072;14.474;2023-07-02T09:40:50;5.30;;;4.90;;
44606;SDS011;30315;46.072;14.474;2023-07-02T09:43:18;4.85;;;4.45;;
44606;SDS011;30315;46.072;14.474;2023-07-02T09:45:47;5.40;;;5.00;;
44606;SDS011;30315;46.072;14.474;2023-07-02T09:48:16;4.45;;;4.15;;
44606;SDS011;30315;46.072;14.474;2023-07-02T09:50:44;4.40;;;4.10;;
44606;SDS011;30315;46.072;14.474;2023-07-02T09:53:14;4.50;;;4.20;;
44606;SDS011;30315;46.072;14.474;2023-07-02T09:55:44;4.78;;;4.38;;
44606;SDS011;30315;46.072;14.474;2023-07-02T09:58:11;4.80;;;4.50;;
44606;SDS011;30315;46.072;14.474;2023-07-02T10:00:38;4.68;;;4.38;;
44606;SDS011;30315;46.072;14.474;2023-07-02T10:03:07;4.75;;;4.45;;
44606;SDS011;30315;46.072;14.474;2023-07-02T10:05:34;5.45;;;5.05;;
44606;SDS011;30315;46.072;14.474;2023-07-02T10:08:14;4.95;;;4.45;;
44606;SDS011;30315;46.072;14.474;2023-07-02T10:10:44;4.75;;;4.45;;
44606;SDS011;30315;46.072;14.474;2023-07-02T10:13:11;5.30;;;4.85;;
44606;SDS011;30315;46.072;14.474;2023-07-02T10:15:38;5.60;;;4.82;;
44606;SDS011;30315;46.072;14.474;2023-07-02T10:18:06;5.82;;;4.55;;
44606;SDS011;30315;46.072;14.474;2023-07-02T10:23:06;6.25;;;5.75;;
44606;SDS011;30315;46.072;14.474;2023-07-02T10:25:34;6.38;;;5.85;;
44606;SDS011;30315;46.072;14.474;2023-07-02T10:30:41;6.28;;;5.78;;
44606;SDS011;30315;46.072;14.474;2023-07-02T10:33:09;6.32;;;5.72;;
44606;SDS011;30315;46.072;14.474;2023-07-02T10:35:41;6.80;;;5.90;;
44606;SDS011;30315;46.072;14.474;2023-07-02T10:38:14;7.25;;;6.65;;
44606;SDS011;30315;46.072;14.474;2023-07-02T10:40:44;5.85;;;5.35;;
44606;SDS011;30315;46.072;14.474;2023-07-02T10:43:12;6.38;;;5.88;;
44606;SDS011;30315;46.072;14.474;2023-07-02T10:45:40;6.38;;;5.70;;
44606;SDS011;30315;46.072;14.474;2023-07-02T10:48:09;8.25;;;6.43;;
44606;SDS011;30315;46.072;14.474;2023-07-02T10:50:37;5.95;;;5.45;;
44606;SDS011;30315;46.072;14.474;2023-07-02T10:53:04;6.00;;;5.40;;
44606;SDS011;30315;46.072;14.474;2023-07-02T10:55:31;6.50;;;5.90;;
44606;SDS011;30315;46.072;14.474;2023-07-02T10:58:05;6.18;;;5.68;;
44606;SDS011;30315;46.072;14.474;2023-07-02T11:00:42;5.63;;;5.13;;
44606;SDS011;30315;46.072;14.474;2023-07-02T11:03:20;5.93;;;5.43;;
44606;SDS011;30315;46.072;14.474;2023-07-02T11:05:49;5.22;;;4.82;;
44606;SDS011;30315;46.072;14.474;2023-07-02T11:08:17;5.10;;;4.70;;
44606;SDS011;30315;46.072;14.474;2023-07-02T11:10:44;5.40;;;5.00;;
44606;SDS011;30315;46.072;14.474;2023-07-02T11:13:14;5.68;;;5.18;;
44606;SDS011;30315;46.072;14.474;2023-07-02T11:15:42;5.63;;;5.22;;
44606;SDS011;30315;46.072;14.474;2023-07-02T11:18:13;5.25;;;4.82;;
44606;SDS011;30315;46.072;14.474;2023-07-02T11:20:42;4.53;;;4.13;;
44606;SDS011;30315;46.072;14.474;2023-07-02T11:23:17;4.82;;;4.47;;
44606;SDS011;30315;46.072;14.474;2023-07-02T11:25:55;5.30;;;4.90;;
44606;SDS011;30315;46.072;14.474;2023-07-02T11:28:26;5.00;;;4.60;;
44606;SDS011;30315;46.072;14.474;2023-07-02T11:30:54;4.73;;;4.33;;
44606;SDS011;30315;46.072;14.474;2023-07-02T11:33:37;4.30;;;3.90;;
44606;SDS011;30315;46.072;14.474;2023-07-02T11:36:07;3.58;;;3.33;;
44606;SDS011;30315;46.072;14.474;2023-07-02T11:38:46;3.65;;;3.35;;
44606;SDS011;30315;46.072;14.474;2023-07-02T11:41:13;3.63;;;3.35;;
44606;SDS011;30315;46.072;14.474;2023-07-02T11:43:40;3.38;;;3.15;;
44606;SDS011;30315;46.072;14.474;2023-07-02T11:46:07;3.10;;;2.90;;
44606;SDS011;30315;46.072;14.474;2023-07-02T11:48:34;3.50;;;3.25;;
44606;SDS011;30315;46.072;14.474;2023-07-02T11:51:01;3.47;;;3.25;;
44606;SDS011;30315;46.072;14.474;2023-07-02T11:53:28;3.53;;;3.33;;
44606;SDS011;30315;46.072;14.474;2023-07-02T11:55:55;4.10;;;3.80;;
44606;SDS011;30315;46.072;14.474;2023-07-02T11:58:22;4.07;;;3.67;;
44606;SDS011;30315;46.072;14.474;2023-07-02T12:00:49;3.55;;;3.35;;
44606;SDS011;30315;46.072;14.474;2023-07-02T12:03:16;3.55;;;3.35;;
44606;SDS011;30315;46.072;14.474;2023-07-02T12:05:43;3.78;;;3.53;;
44606;SDS011;30315;46.072;14.474;2023-07-02T12:08:10;4.15;;;3.75;;
44606;SDS011;30315;46.072;14.474;2023-07-02T12:10:36;3.67;;;3.47;;
44606;SDS011;30315;46.072;14.474;2023-07-02T12:13:04;4.18;;;3.80;;
44606;SDS011;30315;46.072;14.474;2023-07-02T12:15:31;3.80;;;3.50;;
44606;SDS011;30315;46.072;14.474;2023-07-02T12:17:58;4.20;;;3.90;;
44606;SDS011;30315;46.072;14.474;2023-07-02T12:20:25;3.65;;;3.45;;
44606;SDS011;30315;46.072;14.474;2023-07-02T12:22:52;3.78;;;3.47;;
44606;SDS011;30315;46.072;14.474;2023-07-02T12:25:19;3.70;;;3.50;;
44606;SDS011;30315;46.072;14.474;2023-07-02T12:27:46;4.50;;;4.20;;
44606;SDS011;30315;46.072;14.474;2023-07-02T12:30:13;4.28;;;3.90;;
44606;SDS011;30315;46.072;14.474;2023-07-02T12:32:43;4.30;;;4.00;;
44606;SDS011;30315;46.072;14.474;2023-07-02T12:35:11;4.93;;;4.35;;
44606;SDS011;30315;46.072;14.474;2023-07-02T12:37:45;4.35;;;4.03;;
44606;SDS011;30315;46.072;14.474;2023-07-02T12:40:13;4.00;;;3.70;;
44606;SDS011;30315;46.072;14.474;2023-07-02T12:42:40;3.88;;;3.45;;
44606;SDS011;30315;46.072;14.474;2023-07-02T12:45:09;3.75;;;3.53;;
44606;SDS011;30315;46.072;14.474;2023-07-02T12:47:38;4.07;;;3.78;;
44606;SDS011;30315;46.072;14.474;2023-07-02T12:50:06;3.42;;;3.22;;
44606;SDS011;30315;46.072;14.474;2023-07-02T12:52:34;4.00;;;3.58;;
44606;SDS011;30315;46.072;14.474;2023-07-02T12:55:01;3.80;;;3.60;;
44606;SDS011;30315;46.072;14.474;2023-07-02T12:57:28;3.78;;;3.47;;
44606;SDS011;30315;46.072;14.474;2023-07-02T12:59:56;3.53;;;3.33;;
44606;SDS011;30315;46.072;14.474;2023-07-02T13:02:23;3.15;;;2.95;;
44606;SDS011;30315;46.072;14.474;2023-07-02T13:04:50;3.83;;;3.60;;
44606;SDS011;30315;46.072;14.474;2023-07-02T13:07:18;3.40;;;3.10;;
44606;SDS011;30315;46.072;14.474;2023-07-02T13:09:45;3.15;;;2.95;;
44606;SDS011;30315;46.072;14.474;2023-07-02T13:12:12;3.40;;;3.20;;
44606;SDS011;30315;46.072;14.474;2023-07-02T13:14:39;3.70;;;3.42;;
44606;SDS011;30315;46.072;14.474;2023-07-02T13:17:06;2.92;;;2.72;;
44606;SDS011;30315;46.072;14.474;2023-07-02T13:19:33;2.95;;;2.75;;
44606;SDS011;30315;46.072;14.474;2023-07-02T13:22:01;3.38;;;3.17;;
44606;SDS011;30315;46.072;14.474;2023-07-02T13:24:32;3.22;;;3.03;;
44606;SDS011;30315;46.072;14.474;2023-07-02T13:27:04;3.25;;;3.05;;
44606;SDS011;30315;46.072;14.474;2023-07-02T13:29:37;3.50;;;3.30;;
44606;SDS011;30315;46.072;14.474;2023-07-02T13:32:04;3.22;;;3.03;;
44606;SDS011;30315;46.072;14.474;2023-07-02T13:34:31;3.08;;;2.90;;
44606;SDS011;30315;46.072;14.474;2023-07-02T13:36:59;2.83;;;2.72;;
44606;SDS011;30315;46.072;14.474;2023-07-02T13:39:26;3.35;;;3.15;;
44606;SDS011;30315;46.072;14.474;2023-07-02T13:41:52;3.53;;;3.22;;
44606;SDS011;30315;46.072;14.474;2023-07-02T13:44:19;3.15;;;2.95;;
44606;SDS011;30315;46.072;14.474;2023-07-02T13:46:46;3.33;;;3.13;;
44606;SDS011;30315;46.072;14.474;2023-07-02T13:49:14;3.15;;;2.95;;
44606;SDS011;30315;46.072;14.474;2023-07-02T13:51:41;3.35;;;3.15;;
44606;SDS011;30315;46.072;14.474;2023-07-02T13:54:11;3.22;;;3.03;;
44606;SDS011;30315;46.072;14.474;2023-07-02T13:56:40;3.10;;;2.90;;
44606;SDS011;30315;46.072;14.474;2023-07-02T13:59:07;3.17;;;2.97;;
44606;SDS011;30315;46.072;14.474;2023-07-02T14:01:34;3.35;;;3.15;;
44606;SDS011;30315;46.072;14.474;2023-07-02T14:04:02;3.72;;;3.42;;
44606;SDS011;30315;46.072;14.474;2023-07-02T14:06:30;3.58;;;3.28;;
44606;SDS011;30315;46.072;14.474;2023-07-02T14:08:57;3.42;;;3.05;;
44606;SDS011;30315;46.072;14.474;2023-07-02T14:11:25;3.63;;;3.42;;
44606;SDS011;30315;46.072;14.474;2023-07-02T14:13:54;3.58;;;3.28;;
44606;SDS011;30315;46.072;14.474;2023-07-02T14:16:21;3.10;;;2.90;;
44606;SDS011;30315;46.072;14.474;2023-07-02T14:18:50;3.63;;;3.33;;
44606;SDS011;30315;46.072;14.474;2023-07-02T14:21:17;3.20;;;3.00;;
44606;SDS011;30315;46.072;14.474;2023-07-02T14:23:44;3.45;;;3.25;;
44606;SDS011;30315;46.072;14.474;2023-07-02T14:26:11;3.33;;;3.13;;
44606;SDS011;30315;46.072;14.474;2023-07-02T14:28:38;4.15;;;3.90;;
44606;SDS011;30315;46.072;14.474;2023-07-02T14:31:05;4.40;;;4.10;;
44606;SDS011;30315;46.072;14.474;2023-07-02T14:33:34;4.78;;;4.30;;
44606;SDS011;30315;46.072;14.474;2023-07-02T14:36:02;4.60;;;4.20;;
44606;SDS011;30315;46.072;14.474;2023-07-02T14:38:29;4.90;;;4.45;;
44606;SDS011;30315;46.072;14.474;2023-07-02T14:40:57;4.82;;;4.47;;
44606;SDS011;30315;46.072;14.474;2023-07-02T14:43:25;5.07;;;4.70;;
44606;SDS011;30315;46.072;14.474;2023-07-02T14:48:22;6.07;;;5.57;;
44606;SDS011;30315;46.072;14.474;2023-07-02T14:50:56;5.22;;;4.82;;
44606;SDS011;30315;46.072;14.474;2023-07-02T14:53:25;5.40;;;5.00;;